Time;durP1;ratioP1;P1;durP2;ratioP2;P2;SDS_P1;SDS_P2;PMS_P1;PMS_P2;Temp;Humidity;BMP_temperature;BMP_pressure;BME280_temperature;BME280_humidity;BME280_pressure;Samples;Min_cycle;Max_cycle;Signal;HPM_P1;HPM_P2
2022/09/29 00:02:20;;;;;;;2.60;1.50;;;7.60;99.90;;;;;;4976983;28;20142;-81
2022/09/29 00:04:46;;;;;;;5.33;1.70;;;7.70;99.90;;;;;;4977184;28;20058;-81
2022/09/29 00:07:11;;;;;;;2.30;1.53;;;7.70;99.90;;;;;;4976730;28;20031;-81
2022/09/29 00:09:37;;;;;;;2.00;1.60;;;7.60;99.90;;;;;;4976756;28;20034;-81
2022/09/29 00:12:03;;;;;;;2.73;1.50;;;7.60;99.90;;;;;;4977033;28;20042;-81
2022/09/29 00:14:28;;;;;;;2.77;1.50;;;7.60;99.90;;;;;;4976961;28;20042;-81
2022/09/29 00:16:54;;;;;;;2.90;1.60;;;7.60;99.90;;;;;;4976708;28;20146;-81
2022/09/29 00:19:19;;;;;;;3.13;1.40;;;7.50;99.90;;;;;;4977002;28;20392;-81
2022/09/29 00:21:45;;;;;;;2.73;1.60;;;7.50;99.90;;;;;;4976089;28;20427;-79
2022/09/29 00:24:11;;;;;;;3.50;1.60;;;7.50;99.90;;;;;;4975736;28;20034;-79
2022/09/29 00:26:37;;;;;;;1.83;1.40;;;7.50;99.90;;;;;;4975763;28;20105;-79
2022/09/29 00:29:02;;;;;;;3.20;1.50;;;7.50;99.90;;;;;;4975875;28;20400;-79
2022/09/29 00:31:30;;;;;;;4.07;1.63;;;7.40;99.90;;;;;;4975742;28;20090;-79
2022/09/29 00:33:57;;;;;;;2.67;1.40;;;7.40;99.90;;;;;;4975570;28;20034;-79
2022/09/29 00:36:24;;;;;;;2.63;1.60;;;7.40;99.90;;;;;;4976112;28;20484;-79
2022/09/29 00:38:53;;;;;;;1.90;1.33;;;7.40;99.90;;;;;;4975588;28;20050;-79
2022/09/29 00:41:29;;;;;;;2.50;1.40;;;7.40;99.90;;;;;;4975696;28;20034;-79
2022/09/29 00:44:00;;;;;;;1.70;1.30;;;7.40;99.90;;;;;;4990513;28;20381;-79
2022/09/29 00:46:32;;;;;;;3.53;1.77;;;7.40;99.90;;;;;;4990552;28;20085;-79
2022/09/29 00:49:18;;;;;;;2.03;1.40;;;7.40;99.90;;;;;;4975379;28;20380;-79
2022/09/29 00:51:52;;;;;;;1.30;1.20;;;7.40;99.90;;;;;;4975517;28;20037;-79
2022/09/29 00:54:18;;;;;;;3.20;1.20;;;7.40;99.90;;;;;;4975300;28;20039;-79
2022/09/29 00:56:45;;;;;;;3.60;1.47;;;7.40;99.90;;;;;;4990347;28;20043;-79
2022/09/29 00:59:15;;;;;;;2.43;1.37;;;7.40;99.90;;;;;;4975176;28;20023;-79
2022/09/29 01:01:41;;;;;;;7.57;2.93;;;7.40;99.90;;;;;;4975297;28;20134;-79
2022/09/29 01:04:17;;;;;;;4.40;2.10;;;7.40;99.90;;;;;;4975270;28;20515;-79
2022/09/29 01:06:47;;;;;;;3.43;1.70;;;7.40;99.90;;;;;;4975424;28;20023;-79
2022/09/29 01:09:32;;;;;;;3.50;1.43;;;7.40;99.90;;;;;;4975341;28;20054;-79
2022/09/29 01:11:58;;;;;;;3.42;1.50;;;7.40;99.90;;;;;;4975204;28;20031;-79
2022/09/29 01:14:26;;;;;;;2.10;1.63;;;7.30;99.90;;;;;;4975133;28;20034;-79
2022/09/29 01:16:52;;;;;;;2.50;1.43;;;7.30;99.90;;;;;;4975284;28;20058;-79
2022/09/29 01:19:35;;;;;;;1.90;1.50;;;7.40;99.90;;;;;;4975149;28;20085;-79
2022/09/29 01:22:07;;;;;;;2.60;1.70;;;7.40;99.90;;;;;;4975194;28;20122;-79
2022/09/29 01:24:56;;;;;;;2.37;1.57;;;7.30;99.90;;;;;;4975089;28;20061;-79
2022/09/29 01:27:55;;;;;;;1.93;1.30;;;7.30;99.90;;;;;;4975152;28;20073;-79
2022/09/29 01:31:21;;;;;;;2.30;1.47;;;7.30;99.90;;;;;;4974937;28;20484;-79
2022/09/29 01:33:53;;;;;;;4.90;1.37;;;7.30;99.90;;;;;;4972486;28;20122;-79
2022/09/29 01:36:41;;;;;;;2.33;1.57;;;7.30;99.90;;;;;;4972369;28;20031;-79
2022/09/29 01:39:26;;;;;;;2.80;1.20;;;7.30;99.90;;;;;;4979788;28;20050;-79
2022/09/29 01:42:03;;;;;;;2.08;1.33;;;7.30;99.90;;;;;;4993806;28;20084;-79
2022/09/29 01:44:46;;;;;;;2.47;1.70;;;7.30;99.90;;;;;;4994113;28;20054;-79
2022/09/29 01:47:28;;;;;;;2.50;1.60;;;7.30;99.90;;;;;;4992827;28;20027;-79
2022/09/29 01:50:01;;;;;;;2.03;1.50;;;7.40;99.90;;;;;;4993939;28;20387;-79
2022/09/29 01:52:31;;;;;;;1.93;1.50;;;7.30;99.90;;;;;;4993815;28;20339;-79
2022/09/29 01:55:01;;;;;;;2.03;1.50;;;7.30;99.90;;;;;;4994228;28;20499;-79
2022/09/29 01:57:34;;;;;;;2.20;1.50;;;7.40;99.90;;;;;;4993594;28;20031;-79
2022/09/29 02:00:07;;;;;;;3.83;1.40;;;7.40;99.90;;;;;;4994131;28;20510;-79
2022/09/29 02:02:43;;;;;;;2.13;1.50;;;7.30;99.90;;;;;;4993840;28;20399;-79
2022/09/29 02:05:17;;;;;;;2.00;1.67;;;7.40;99.90;;;;;;4993570;28;20033;-79
2022/09/29 02:07:45;;;;;;;3.10;1.50;;;7.40;99.90;;;;;;4993423;28;20022;-79
2022/09/29 02:10:28;;;;;;;3.50;1.60;;;7.30;99.90;;;;;;4993504;28;20463;-79
2022/09/29 02:12:55;;;;;;;4.30;1.60;;;7.30;99.90;;;;;;4993378;28;20034;-78
2022/09/29 02:15:25;;;;;;;2.20;1.50;;;7.30;99.90;;;;;;4993178;28;20164;-79
2022/09/29 02:17:54;;;;;;;2.00;1.70;;;7.30;99.90;;;;;;4993420;28;20506;-79
2022/09/29 02:20:21;;;;;;;3.03;1.50;;;7.30;99.90;;;;;;4992529;28;20030;-79
2022/09/29 02:22:47;;;;;;;1.93;1.40;;;7.30;99.90;;;;;;4993040;28;20104;-79
2022/09/29 02:25:16;;;;;;;2.50;1.70;;;7.40;99.90;;;;;;4993253;28;20022;-79
2022/09/29 02:27:41;;;;;;;4.90;1.60;;;7.30;99.90;;;;;;4992991;28;20528;-79
2022/09/29 02:30:08;;;;;;;5.07;1.57;;;7.30;99.90;;;;;;4992919;28;20042;-79
2022/09/29 02:32:35;;;;;;;2.10;1.40;;;7.30;99.90;;;;;;4987628;28;20041;-79
2022/09/29 02:35:05;;;;;;;1.90;1.30;;;7.40;99.90;;;;;;4988807;28;20517;-79
2022/09/29 02:37:42;;;;;;;2.47;1.73;;;7.40;99.90;;;;;;4992951;28;20066;-79
2022/09/29 02:40:36;;;;;;;2.00;1.30;;;7.40;99.90;;;;;;4992775;28;20427;-79
2022/09/29 02:43:08;;;;;;;1.77;1.20;;;7.40;99.90;;;;;;4992587;28;20054;-79
2022/09/29 02:45:40;;;;;;;4.07;1.60;;;7.40;99.90;;;;;;4992785;28;20034;-79
2022/09/29 02:48:38;;;;;;;1.87;1.40;;;7.30;99.90;;;;;;4992530;28;20483;-79
2022/09/29 02:51:22;;;;;;;1.60;1.20;;;7.30;99.90;;;;;;4992557;28;20023;-79
2022/09/29 02:54:12;;;;;;;1.40;1.20;;;7.30;99.90;;;;;;4992539;28;20061;-79
2022/09/29 02:56:49;;;;;;;2.80;1.50;;;7.40;99.90;;;;;;4992497;28;20039;-79
2022/09/29 02:59:38;;;;;;;2.57;1.30;;;7.40;99.90;;;;;;4992654;28;20027;-79
2022/09/29 03:02:04;;;;;;;1.47;1.20;;;7.30;99.90;;;;;;4992683;28;20793;-79
2022/09/29 03:04:30;;;;;;;2.73;1.50;;;7.30;99.90;;;;;;4990940;28;20114;-79
2022/09/29 03:06:55;;;;;;;2.27;1.40;;;7.30;99.90;;;;;;4992378;28;20053;-79
2022/09/29 03:09:21;;;;;;;1.90;1.23;;;7.30;99.90;;;;;;4992518;28;20026;-79
2022/09/29 03:11:46;;;;;;;4.93;1.70;;;7.30;99.90;;;;;;4992581;28;20026;-79
2022/09/29 03:14:12;;;;;;;3.33;1.70;;;7.30;99.90;;;;;;4992620;28;20050;-79
2022/09/29 03:16:38;;;;;;;3.57;1.40;;;7.30;99.90;;;;;;4992452;28;20464;-79
2022/09/29 03:19:04;;;;;;;1.67;1.37;;;7.30;99.90;;;;;;4992486;28;20459;-79
2022/09/29 03:21:30;;;;;;;2.10;1.67;;;7.40;99.90;;;;;;5007663;28;20602;-79
2022/09/29 03:23:56;;;;;;;1.80;1.50;;;7.30;99.90;;;;;;4992712;28;20018;-79
2022/09/29 03:26:22;;;;;;;2.27;1.50;;;7.30;99.90;;;;;;4992264;28;20487;-79
2022/09/29 03:28:49;;;;;;;2.17;1.50;;;7.30;99.90;;;;;;4992325;28;20018;-79
2022/09/29 03:31:14;;;;;;;3.10;1.40;;;7.30;99.90;;;;;;4991136;28;20298;-79
2022/09/29 03:33:40;;;;;;;5.70;1.40;;;7.30;99.90;;;;;;4972193;28;20027;-79
2022/09/29 03:36:07;;;;;;;2.23;1.73;;;7.30;99.90;;;;;;4972753;28;20474;-79
2022/09/29 03:38:33;;;;;;;2.80;1.70;;;7.40;99.90;;;;;;4972626;28;20019;-79
2022/09/29 03:40:59;;;;;;;6.13;1.90;;;7.40;99.90;;;;;;4972987;28;20023;-79
2022/09/29 03:43:25;;;;;;;4.70;1.60;;;7.40;99.90;;;;;;4972469;28;20079;-79
2022/09/29 03:45:53;;;;;;;2.57;1.40;;;7.40;99.90;;;;;;4972512;28;20085;-79
2022/09/29 03:48:20;;;;;;;2.47;1.50;;;7.40;99.90;;;;;;4972529;28;20467;-79
2022/09/29 03:50:47;;;;;;;8.40;1.57;;;7.40;99.90;;;;;;4987222;28;20027;-75
2022/09/29 03:53:13;;;;;;;3.67;1.43;;;7.40;99.90;;;;;;4971783;28;20026;-76
2022/09/29 03:55:39;;;;;;;3.87;1.53;;;7.40;99.90;;;;;;4971523;28;20045;-76
2022/09/29 03:58:06;;;;;;;3.97;1.40;;;7.40;99.90;;;;;;4971537;28;20038;-75
2022/09/29 04:00:32;;;;;;;1.83;1.23;;;7.40;99.90;;;;;;4971420;28;20110;-76
2022/09/29 04:02:57;;;;;;;3.40;1.50;;;7.40;99.90;;;;;;4971522;28;20134;-75
2022/09/29 04:05:23;;;;;;;6.10;1.60;;;7.50;99.90;;;;;;4971297;28;20062;-76
2022/09/29 04:07:48;;;;;;;3.33;1.60;;;7.50;99.90;;;;;;4971381;28;20027;-75
2022/09/29 04:10:14;;;;;;;3.97;1.57;;;7.50;99.90;;;;;;4971404;28;20034;-75
2022/09/29 04:12:40;;;;;;;2.73;1.40;;;7.50;99.90;;;;;;4971510;28;20491;-75
2022/09/29 04:15:07;;;;;;;3.20;1.60;;;7.50;99.90;;;;;;4971629;28;20110;-76
2022/09/29 04:17:33;;;;;;;1.80;1.60;;;7.50;99.90;;;;;;4986126;28;20027;-76
2022/09/29 04:19:58;;;;;;;3.63;1.63;;;7.50;99.90;;;;;;4971472;28;20038;-75
2022/09/29 04:22:24;;;;;;;3.03;1.40;;;7.50;99.90;;;;;;4971052;28;20035;-76
2022/09/29 04:24:50;;;;;;;2.30;1.40;;;7.50;99.90;;;;;;4971108;28;20085;-76
2022/09/29 04:27:17;;;;;;;3.60;1.20;;;7.50;99.90;;;;;;4971317;28;20022;-75
2022/09/29 04:29:43;;;;;;;2.77;1.43;;;7.60;99.90;;;;;;4970612;28;20121;-75
2022/09/29 04:32:09;;;;;;;2.07;1.47;;;7.60;99.90;;;;;;4981107;28;20057;-75
2022/09/29 04:34:35;;;;;;;6.37;4.07;;;7.60;99.90;;;;;;4997988;28;20023;-75
2022/09/29 04:37:00;;;;;;;1.83;1.50;;;7.60;99.90;;;;;;4990537;28;20085;-75
2022/09/29 04:39:26;;;;;;;4.53;2.17;;;7.50;99.90;;;;;;4990879;28;20030;-75
2022/09/29 04:41:52;;;;;;;1.63;1.47;;;7.60;99.90;;;;;;4990484;28;20050;-78
2022/09/29 04:44:21;;;;;;;3.40;1.30;;;7.60;99.90;;;;;;4993240;28;20034;-78
2022/09/29 04:46:51;;;;;;;1.27;1.17;;;7.60;99.90;;;;;;4993850;28;20689;-81
2022/09/29 04:49:18;;;;;;;4.50;1.40;;;7.60;99.90;;;;;;4994187;28;20026;-75
2022/09/29 04:51:43;;;;;;;1.60;1.20;;;7.60;99.90;;;;;;4994115;28;20034;-78
2022/09/29 04:54:09;;;;;;;2.87;1.43;;;7.60;99.90;;;;;;4983975;28;20096;-78
2022/09/29 04:56:35;;;;;;;2.10;1.70;;;7.60;99.90;;;;;;4985289;28;20030;-78
2022/09/29 04:59:00;;;;;;;2.23;1.50;;;7.60;99.90;;;;;;4977352;28;20037;-78
2022/09/29 05:01:26;;;;;;;3.13;1.20;;;7.60;99.90;;;;;;4974553;28;20059;-77
2022/09/29 05:03:52;;;;;;;3.20;1.50;;;7.60;99.90;;;;;;4974976;28;20031;-78
2022/09/29 05:06:17;;;;;;;2.10;1.40;;;7.60;99.90;;;;;;4974611;28;20090;-78
2022/09/29 05:08:43;;;;;;;4.17;1.40;;;7.60;99.90;;;;;;4975007;28;20031;-78
2022/09/29 05:11:09;;;;;;;2.30;1.50;;;7.60;99.90;;;;;;4974714;28;20123;-77
2022/09/29 05:13:36;;;;;;;3.70;1.50;;;7.50;99.90;;;;;;4974510;28;20042;-78
2022/09/29 05:16:02;;;;;;;2.87;1.50;;;7.50;99.90;;;;;;4973525;28;20410;-78
2022/09/29 05:18:28;;;;;;;1.80;1.30;;;7.50;99.90;;;;;;4974664;28;20443;-78
2022/09/29 05:20:54;;;;;;;1.80;1.40;;;7.50;99.90;;;;;;4974812;28;20118;-78
2022/09/29 05:23:20;;;;;;;1.70;1.30;;;7.50;99.90;;;;;;4982937;28;20117;-78
2022/09/29 05:25:46;;;;;;;3.70;3.30;;;7.50;99.90;;;;;;4992514;28;20022;-78
2022/09/29 05:28:13;;;;;;;6.27;3.67;;;7.40;99.90;;;;;;4974803;28;20035;-78
2022/09/29 05:30:40;;;;;;;3.50;1.90;;;7.50;99.90;;;;;;4974684;28;20057;-78
2022/09/29 05:33:05;;;;;;;2.80;1.60;;;7.50;99.90;;;;;;4985791;28;20129;-77
2022/09/29 05:35:31;;;;;;;3.80;2.50;;;7.50;99.90;;;;;;4974883;28;20034;-78
2022/09/29 05:37:57;;;;;;;5.53;3.87;;;7.50;99.90;;;;;;4974266;28;20045;-77
2022/09/29 05:40:23;;;;;;;3.60;2.60;;;7.50;99.90;;;;;;4989963;28;20030;-78
2022/09/29 05:42:49;;;;;;;3.57;2.30;;;7.50;99.90;;;;;;4993455;28;20376;-78
2022/09/29 05:45:15;;;;;;;3.47;2.83;;;7.50;99.90;;;;;;4993373;28;20523;-78
2022/09/29 05:47:42;;;;;;;5.17;3.00;;;7.50;99.90;;;;;;4993430;28;20110;-83
2022/09/29 05:50:09;;;;;;;3.67;2.57;;;7.50;99.90;;;;;;4993560;28;20852;-76
2022/09/29 05:52:35;;;;;;;2.80;2.07;;;7.50;99.90;;;;;;4992850;28;20030;-76
2022/09/29 05:55:00;;;;;;;5.90;1.90;;;7.50;99.90;;;;;;4991626;28;20120;-78
2022/09/29 05:57:26;;;;;;;4.00;2.13;;;7.60;99.90;;;;;;4977560;28;20432;-76
2022/09/29 05:59:52;;;;;;;4.43;2.30;;;7.60;99.90;;;;;;4974058;28;20054;-76
2022/09/29 06:02:18;;;;;;;5.03;3.53;;;7.60;99.90;;;;;;4973805;28;20416;-76
2022/09/29 06:04:43;;;;;;;3.53;3.07;;;7.70;99.90;;;;;;4974211;28;20038;-78
2022/09/29 06:07:09;;;;;;;17.33;11.93;;;7.70;99.90;;;;;;4974015;28;20027;-77
2022/09/29 06:09:37;;;;;;;6.60;4.50;;;7.70;99.90;;;;;;4973954;28;20031;-78
2022/09/29 06:12:04;;;;;;;6.33;2.87;;;7.70;99.90;;;;;;4973787;28;20030;-78
2022/09/29 06:14:30;;;;;;;10.00;6.67;;;7.70;99.90;;;;;;4973600;28;20035;-78
2022/09/29 06:16:55;;;;;;;4.80;2.77;;;7.70;99.90;;;;;;4973343;28;20034;-76
2022/09/29 06:19:21;;;;;;;4.97;3.30;;;7.80;99.90;;;;;;4973347;28;20059;-76
2022/09/29 06:21:46;;;;;;;9.83;4.70;;;7.80;99.90;;;;;;4972709;28;20042;-76
2022/09/29 06:24:12;;;;;;;15.57;7.73;;;7.80;99.90;;;;;;4972683;28;20114;-76
2022/09/29 06:26:37;;;;;;;27.30;18.30;;;7.90;99.90;;;;;;4972794;28;20047;-76
2022/09/29 06:29:03;;;;;;;11.60;6.37;;;8.00;99.90;;;;;;4972467;28;20130;-76
2022/09/29 06:31:30;;;;;;;20.97;12.47;;;8.00;99.90;;;;;;4974355;28;20643;-76
2022/09/29 06:33:58;;;;;;;31.33;17.60;;;8.10;99.90;;;;;;4985389;28;20058;-76
2022/09/29 06:39:12;;;;;;;31.33;16.67;;;8.10;99.90;;;;;;4973325;28;20093;-76
2022/09/29 06:41:38;;;;;;;32.37;17.37;;;8.20;99.90;;;;;;4973361;28;20445;-76
2022/09/29 06:44:04;;;;;;;253.17;130.17;;;8.20;99.90;;;;;;4973030;28;20027;-76
2022/09/29 06:46:30;;;;;;;114.03;57.57;;;8.20;99.90;;;;;;4973232;28;20027;-76
2022/09/29 06:48:56;;;;;;;59.00;25.90;;;8.30;99.90;;;;;;4972785;28;20480;-74
2022/09/29 06:51:23;;;;;;;162.13;77.37;;;8.30;99.90;;;;;;4976413;28;20022;-73
2022/09/29 06:53:50;;;;;;;88.20;43.40;;;8.40;99.90;;;;;;4983619;28;20018;-74
2022/09/29 06:56:17;;;;;;;61.77;28.77;;;8.40;99.90;;;;;;4979868;28;20019;-74
2022/09/29 06:58:44;;;;;;;38.80;20.30;;;8.40;99.90;;;;;;4972490;28;20026;-74
2022/09/29 07:01:11;;;;;;;20.07;11.07;;;8.50;99.90;;;;;;4994607;28;20037;-73
2022/09/29 07:03:37;;;;;;;15.57;8.57;;;8.60;99.90;;;;;;5000017;28;20030;-74
2022/09/29 07:06:05;;;;;;;9.70;5.17;;;8.70;99.90;;;;;;4995266;28;20014;-74
2022/09/29 07:08:31;;;;;;;12.63;4.17;;;8.70;99.90;;;;;;4995238;28;20061;-75
2022/09/29 07:10:57;;;;;;;31.07;16.13;;;8.70;99.90;;;;;;4998715;28;20026;-75
2022/09/29 07:13:23;;;;;;;26.80;12.47;;;8.80;99.90;;;;;;5000443;28;20352;-75
2022/09/29 07:15:49;;;;;;;11.97;6.30;;;8.80;99.90;;;;;;4997053;28;20049;-75
2022/09/29 07:18:14;;;;;;;15.53;8.37;;;8.90;99.90;;;;;;4997437;28;20069;-75
2022/09/29 07:20:40;;;;;;;11.67;5.00;;;8.90;99.90;;;;;;4994756;28;20034;-75
2022/09/29 07:23:07;;;;;;;23.63;11.97;;;9.00;99.90;;;;;;5000031;28;20042;-75
2022/09/29 07:25:33;;;;;;;12.23;6.67;;;9.00;99.90;;;;;;4998214;28;20023;-75
2022/09/29 07:27:59;;;;;;;10.47;5.03;;;9.10;99.90;;;;;;4998724;28;20030;-75
2022/09/29 07:30:26;;;;;;;5.57;3.30;;;9.10;99.90;;;;;;4997481;28;20092;-75
2022/09/29 07:33:12;;;;;;;5.60;3.60;;;9.10;99.90;;;;;;4995712;28;20059;-75
2022/09/29 07:35:38;;;;;;;27.27;18.33;;;9.20;99.90;;;;;;4997274;28;20037;-75
2022/09/29 07:38:03;;;;;;;18.00;7.27;;;9.20;99.90;;;;;;4991219;28;20049;-75
2022/09/29 07:40:29;;;;;;;15.20;9.50;;;9.20;99.90;;;;;;4996962;28;20109;-75
2022/09/29 07:42:55;;;;;;;8.37;6.10;;;9.30;99.90;;;;;;4993048;28;20073;-75
2022/09/29 07:45:20;;;;;;;13.40;10.23;;;9.40;99.90;;;;;;4996396;28;20452;-75
2022/09/29 07:47:46;;;;;;;7.77;5.70;;;9.40;99.90;;;;;;4996561;28;20400;-75
2022/09/29 07:50:12;;;;;;;6.43;4.43;;;9.50;99.90;;;;;;4993229;28;20034;-74
2022/09/29 07:52:37;;;;;;;9.50;7.50;;;9.60;99.90;;;;;;4994090;28;20077;-75
2022/09/29 07:55:04;;;;;;;7.87;4.53;;;9.60;99.90;;;;;;4994290;28;20519;-74
2022/09/29 07:57:30;;;;;;;7.82;3.90;;;9.70;99.90;;;;;;4995008;28;20522;-74
2022/09/29 07:59:57;;;;;;;6.77;3.40;;;9.80;99.90;;;;;;4988983;28;20384;-74
2022/09/29 08:02:23;;;;;;;4.00;2.67;;;9.70;99.90;;;;;;5000128;28;20026;-75
2022/09/29 08:04:49;;;;;;;7.77;5.17;;;9.80;99.90;;;;;;4992245;28;20518;-75
2022/09/29 08:07:15;;;;;;;11.00;6.27;;;9.80;99.90;;;;;;4998361;28;20133;-75
2022/09/29 08:09:40;;;;;;;7.43;4.10;;;9.80;99.90;;;;;;4995878;28;20052;-75
2022/09/29 08:12:07;;;;;;;4.07;2.90;;;9.90;99.90;;;;;;4995286;28;20394;-74
2022/09/29 08:14:33;;;;;;;3.57;2.20;;;9.90;99.90;;;;;;4996479;28;20096;-75
2022/09/29 08:16:59;;;;;;;3.20;2.50;;;9.90;99.90;;;;;;4996221;28;20108;-74
2022/09/29 08:19:26;;;;;;;3.60;1.80;;;9.90;99.90;;;;;;4999400;28;20466;-75
2022/09/29 08:21:52;;;;;;;5.30;2.33;;;10.10;99.90;;;;;;4996870;28;20056;-77
2022/09/29 08:24:17;;;;;;;5.80;2.63;;;10.10;99.90;;;;;;4999455;28;20038;-76
2022/09/29 08:26:43;;;;;;;6.82;3.10;;;10.20;99.90;;;;;;5001873;28;20033;-76
2022/09/29 08:29:10;;;;;;;4.53;2.65;;;10.30;99.90;;;;;;4999167;28;20072;-77
2022/09/29 08:31:39;;;;;;;6.72;4.40;;;10.40;99.90;;;;;;4999790;28;20038;-77
2022/09/29 08:34:05;;;;;;;7.28;5.25;;;10.50;99.90;;;;;;4996703;28;20044;-77
2022/09/29 08:36:31;;;;;;;5.38;2.90;;;10.50;99.90;;;;;;4999721;28;20037;-77
2022/09/29 08:38:57;;;;;;;5.75;3.60;;;10.60;99.90;;;;;;4998742;28;20129;-77
2022/09/29 08:41:36;;;;;;;6.78;3.50;;;10.60;99.90;;;;;;4999093;28;20038;-77
2022/09/29 08:44:24;;;;;;;4.75;2.60;;;10.70;99.90;;;;;;4997537;28;20037;-77
2022/09/29 08:47:12;;;;;;;3.80;2.60;;;10.80;99.90;;;;;;5002925;28;20137;-77
2022/09/29 08:49:50;;;;;;;2.63;1.40;;;10.90;99.90;;;;;;4996565;28;20022;-77
2022/09/29 08:52:39;;;;;;;2.72;1.70;;;11.00;99.90;;;;;;4999759;28;20025;-77
2022/09/29 08:55:17;;;;;;;1.58;1.35;;;11.00;99.90;;;;;;4998036;28;20072;-77
2022/09/29 08:57:46;;;;;;;4.30;1.92;;;11.10;99.90;;;;;;5001249;28;20042;-77
2022/09/29 09:00:16;;;;;;;3.85;1.67;;;11.10;99.90;;;;;;5000904;28;20145;-77
2022/09/29 09:03:07;;;;;;;2.63;1.60;;;11.10;99.90;;;;;;5002640;28;20034;-77
2022/09/29 09:06:00;;;;;;;1.95;1.42;;;11.10;99.90;;;;;;5001490;28;20030;-77
2022/09/29 09:08:47;;;;;;;2.78;1.55;;;11.00;99.90;;;;;;5000954;28;20030;-77
2022/09/29 09:11:27;;;;;;;2.78;1.95;;;11.00;99.90;;;;;;5000275;28;20597;-76
2022/09/29 09:14:06;;;;;;;3.50;1.50;;;11.00;99.90;;;;;;4999946;28;20019;-77
2022/09/29 09:16:53;;;;;;;3.97;1.55;;;10.90;99.90;;;;;;4999013;28;20033;-76
2022/09/29 09:19:33;;;;;;;4.88;1.52;;;10.80;99.90;;;;;;4998003;28;20029;-76
2022/09/29 09:22:18;;;;;;;4.97;1.88;;;10.70;99.90;;;;;;4998644;28;20030;-77
2022/09/29 09:24:47;;;;;;;;;;;10.70;99.90;;;;;;4998279;28;20137;-76
2022/09/29 09:27:21;;;;;;;2.75;1.50;;;10.60;99.90;;;;;;4995684;28;20440;-77
2022/09/29 09:29:48;;;;;;;4.10;1.60;;;10.50;99.90;;;;;;4992871;28;20042;-77
2022/09/29 09:32:24;;;;;;;2.83;1.40;;;10.50;99.90;;;;;;4990452;28;20038;-77
2022/09/29 09:34:57;;;;;;;2.35;1.60;;;10.40;99.90;;;;;;4989197;28;20124;-77
2022/09/29 09:37:38;;;;;;;2.30;1.50;;;10.40;99.90;;;;;;4994527;28;20026;-77
2022/09/29 09:40:10;;;;;;;2.53;1.60;;;10.40;99.90;;;;;;4993616;28;20037;-78
2022/09/29 09:42:41;;;;;;;4.82;1.70;;;10.30;99.90;;;;;;4993113;28;20022;-79
2022/09/29 09:45:06;;;;;;;2.45;1.58;;;10.30;99.90;;;;;;4993258;28;20045;-78
2022/09/29 09:47:37;;;;;;;2.80;1.65;;;10.30;99.90;;;;;;4993288;28;20534;-78
2022/09/29 09:50:15;;;;;;;14.98;6.45;;;10.30;99.90;;;;;;4993209;28;20033;-78
2022/09/29 09:52:50;;;;;;;42.08;14.30;;;10.30;99.90;;;;;;4993441;28;20034;-78
2022/09/29 09:55:17;;;;;;;8.43;3.60;;;10.40;99.90;;;;;;4992905;28;20430;-78
2022/09/29 09:58:20;;;;;;;10.35;3.42;;;10.40;99.90;;;;;;4992751;28;20109;-79
2022/09/29 10:01:00;;;;;;;116.72;42.90;;;10.40;99.90;;;;;;4992888;28;20031;-78
2022/09/29 10:03:28;;;;;;;5.60;3.15;;;10.50;99.90;;;;;;4992914;28;20049;-78
2022/09/29 10:05:53;;;;;;;6.35;3.80;;;10.50;99.90;;;;;;4989734;28;20035;-78
2022/09/29 10:08:38;;;;;;;8.35;2.72;;;10.60;99.90;;;;;;4981674;28;20019;-78
2022/09/29 10:11:22;;;;;;;3.75;2.38;;;10.60;99.90;;;;;;4981787;28;20094;-78
2022/09/29 10:13:55;;;;;;;17.42;8.00;;;10.70;99.90;;;;;;4975958;28;20468;-78
2022/09/29 10:16:27;;;;;;;44.58;21.27;;;10.70;99.90;;;;;;4973299;28;20109;-78
2022/09/29 10:18:53;;;;;;;9.82;3.88;;;10.70;99.90;;;;;;4973321;28;20027;-78
2022/09/29 10:21:28;;;;;;;28.38;13.68;;;10.70;99.90;;;;;;4973032;28;20516;-78
2022/09/29 10:23:56;;;;;;;15.20;6.88;;;10.70;99.90;;;;;;4973078;28;20073;-78
2022/09/29 10:26:28;;;;;;;5.75;2.53;;;10.70;99.90;;;;;;4972860;28;20114;-78
2022/09/29 10:29:01;;;;;;;12.13;5.32;;;10.70;99.90;;;;;;4982658;28;20035;-78
2022/09/29 10:31:33;;;;;;;33.45;17.15;;;10.60;99.90;;;;;;4982870;28;20037;-78
2022/09/29 10:34:12;;;;;;;30.45;20.38;;;10.60;99.90;;;;;;4981487;28;20034;-78
2022/09/29 10:36:53;;;;;;;26.42;16.85;;;10.60;99.90;;;;;;4972690;28;20047;-78
2022/09/29 10:39:40;;;;;;;5.78;3.40;;;10.70;99.90;;;;;;4975921;28;20027;-78
2022/09/29 10:42:40;;;;;;;5.65;3.20;;;10.80;99.90;;;;;;5011233;28;20474;-78
2022/09/29 10:45:30;;;;;;;3.63;2.20;;;10.90;99.90;;;;;;5011714;28;20029;-78
2022/09/29 10:47:59;;;;;;;21.73;14.43;;;10.90;99.90;;;;;;5011611;28;20076;-78
2022/09/29 10:50:34;;;;;;;12.95;7.03;;;10.90;99.90;;;;;;5011757;28;20022;-78
2022/09/29 10:53:03;;;;;;;3.70;2.05;;;10.90;99.90;;;;;;5011593;28;20034;-78
2022/09/29 10:55:35;;;;;;;3.97;2.88;;;10.90;99.90;;;;;;5011667;28;20053;-78
2022/09/29 10:58:19;;;;;;;13.02;7.88;;;10.80;99.90;;;;;;5011550;28;20032;-78
2022/09/29 11:00:46;;;;;;;5.30;2.35;;;10.80;99.90;;;;;;5024794;28;20067;-78
2022/09/29 11:03:26;;;;;;;5.22;2.35;;;10.80;99.90;;;;;;4994301;28;20045;-77
2022/09/29 11:06:12;;;;;;;4.25;2.70;;;10.80;99.90;;;;;;4980616;28;20026;-77
2022/09/29 11:09:11;;;;;;;4.05;2.10;;;10.80;99.90;;;;;;4980122;28;20026;-77
2022/09/29 11:11:58;;;;;;;8.30;5.30;;;10.70;99.90;;;;;;4980837;28;20018;-77
2022/09/29 11:14:36;;;;;;;20.60;11.15;;;10.70;99.90;;;;;;4981589;28;20419;-77
2022/09/29 11:17:23;;;;;;;5.82;3.30;;;10.70;99.90;;;;;;4987189;28;20019;-77
2022/09/29 11:19:51;;;;;;;7.68;4.43;;;10.70;99.90;;;;;;4991818;28;20026;-77
2022/09/29 11:22:58;;;;;;;3.28;2.15;;;10.60;99.90;;;;;;4982049;28;20023;-77
2022/09/29 11:25:35;;;;;;;4.75;2.75;;;10.60;99.90;;;;;;4979463;28;20418;-77
2022/09/29 11:28:29;;;;;;;4.65;1.77;;;10.60;99.90;;;;;;4981529;28;20050;-77
2022/09/29 11:31:19;;;;;;;5.60;3.13;;;10.70;99.90;;;;;;4980266;28;20142;-77
2022/09/29 11:34:14;;;;;;;8.90;5.53;;;10.70;99.90;;;;;;4984909;28;20034;-77
2022/09/29 11:37:05;;;;;;;11.80;5.85;;;10.70;99.90;;;;;;4977315;28;20026;-75
2022/09/29 11:39:56;;;;;;;244.77;104.53;;;10.70;99.90;;;;;;4976860;28;20501;-75
2022/09/29 11:43:00;;;;;;;19.38;9.20;;;10.80;99.90;;;;;;4990940;28;20046;-75
2022/09/29 11:45:44;;;;;;;12.68;6.13;;;10.80;99.90;;;;;;4991554;28;20024;-75
2022/09/29 11:48:31;;;;;;;5.63;3.22;;;10.80;99.90;;;;;;4991233;28;20033;-75
2022/09/29 11:50:59;;;;;;;3.88;1.60;;;10.80;99.90;;;;;;4991177;28;20113;-75
2022/09/29 11:53:40;;;;;;;3.47;1.80;;;11.00;99.90;;;;;;4992463;28;20037;-75
2022/09/29 11:56:38;;;;;;;19.58;8.43;;;11.00;99.90;;;;;;4995268;28;20042;-75
2022/09/29 11:59:48;;;;;;;7.68;2.88;;;11.00;99.90;;;;;;4994736;28;20114;-75
2022/09/29 12:02:27;;;;;;;10.63;4.75;;;11.10;99.90;;;;;;4986752;28;20050;-75
2022/09/29 12:05:18;;;;;;;78.28;43.67;;;11.10;99.90;;;;;;4995153;28;20030;-76
2022/09/29 12:07:56;;;;;;;33.85;19.77;;;11.20;99.90;;;;;;4995183;28;20131;-75
2022/09/29 12:10:43;;;;;;;3.63;2.00;;;11.30;99.90;;;;;;4995123;28;20423;-75
2022/09/29 12:13:17;;;;;;;2.42;1.20;;;11.40;99.90;;;;;;4993442;28;20026;-77
2022/09/29 12:15:51;;;;;;;3.13;1.35;;;11.50;99.90;;;;;;4988577;28;20019;-78
2022/09/29 12:18:34;;;;;;;3.42;1.85;;;11.60;99.90;;;;;;4985878;28;20041;-78
2022/09/29 12:21:02;;;;;;;4.32;1.60;;;11.70;99.90;;;;;;4975514;28;20031;-78
2022/09/29 12:23:29;;;;;;;1.92;1.20;;;11.80;99.90;;;;;;4975082;28;20019;-78
2022/09/29 12:25:57;;;;;;;3.80;1.65;;;11.80;99.90;;;;;;4975457;28;20110;-77
2022/09/29 12:28:29;;;;;;;5.50;3.83;;;11.90;99.90;;;;;;4975326;28;20031;-77
2022/09/29 12:31:02;;;;;;;3.83;2.50;;;11.90;99.90;;;;;;4975081;28;20492;-78
2022/09/29 12:33:38;;;;;;;3.80;3.05;;;11.90;99.90;;;;;;4991557;28;20034;-78
2022/09/29 12:36:42;;;;;;;4.72;1.75;;;11.90;99.90;;;;;;4985169;28;20034;-78
2022/09/29 12:39:12;;;;;;;5.30;3.00;;;11.90;99.90;;;;;;4985693;28;20044;-78
2022/09/29 12:41:42;;;;;;;3.17;1.88;;;12.00;99.90;;;;;;4983728;28;20027;-77
2022/09/29 12:44:19;;;;;;;2.22;1.63;;;12.00;99.90;;;;;;4980374;28;20022;-78
2022/09/29 12:46:50;;;;;;;5.82;4.05;;;12.10;99.90;;;;;;4974869;28;20432;-78
2022/09/29 12:49:47;;;;;;;7.97;5.53;;;12.10;99.90;;;;;;4974946;28;20027;-78
2022/09/29 12:52:23;;;;;;;3.97;1.80;;;12.10;99.90;;;;;;4974641;28;20027;-79
2022/09/29 12:54:58;;;;;;;3.65;2.55;;;12.10;99.90;;;;;;4974736;28;20023;-79
2022/09/29 12:57:29;;;;;;;4.28;2.63;;;12.10;99.90;;;;;;4974507;28;20039;-79
2022/09/29 13:00:03;;;;;;;14.48;8.20;;;12.00;99.90;;;;;;4974725;28;20030;-78
2022/09/29 13:02:54;;;;;;;4.85;3.45;;;11.90;99.90;;;;;;4973069;28;20122;-78
2022/09/29 13:05:44;;;;;;;3.70;2.15;;;11.80;99.90;;;;;;4974085;28;20103;-78
2022/09/29 13:08:46;;;;;;;4.18;2.00;;;11.70;99.90;;;;;;4993242;28;20026;-81
2022/09/29 13:11:22;;;;;;;4.50;2.08;;;11.70;99.90;;;;;;4993710;28;20050;-81
2022/09/29 13:14:05;;;;;;;3.20;2.15;;;11.70;99.90;;;;;;4993517;28;20034;-81
2022/09/29 13:16:38;;;;;;;3.88;1.80;;;11.60;99.90;;;;;;4988361;28;20392;-81
2022/09/29 13:19:38;;;;;;;4.70;2.45;;;11.60;99.90;;;;;;4974322;28;20034;-80
2022/09/29 13:22:29;;;;;;;5.13;2.35;;;11.60;99.90;;;;;;4974059;28;20035;-80